sensor_id;sensor_type;location;lat;lon;timestamp;temperature;humidity
63313;DHT22;49442;45.640;13.812;2022-12-29T00:01:01;9.50;99.90
63313;DHT22;49442;45.640;13.812;2022-12-29T00:03:27;9.50;99.90
63313;DHT22;49442;45.640;13.812;2022-12-29T00:05:55;9.50;99.90
63313;DHT22;49442;45.640;13.812;2022-12-29T00:08:21;9.50;99.90
63313;DHT22;49442;45.640;13.812;2022-12-29T00:11:14;9.50;99.90
63313;DHT22;49442;45.640;13.812;2022-12-29T00:13:41;9.50;99.90
63313;DHT22;49442;45.640;13.812;2022-12-29T00:16:24;9.50;99.90
63313;DHT22;49442;45.640;13.812;2022-12-29T00:18:50;9.40;99.90
63313;DHT22;49442;45.640;13.812;2022-12-29T00:21:16;9.40;99.90
63313;DHT22;49442;45.640;13.812;2022-12-29T00:24:01;9.50;99.90
63313;DHT22;49442;45.640;13.812;2022-12-29T00:26:46;9.50;99.90
63313;DHT22;49442;45.640;13.812;2022-12-29T00:29:30;9.40;99.90
63313;DHT22;49442;45.640;13.812;2022-12-29T00:32:15;9.40;99.90
63313;DHT22;49442;45.640;13.812;2022-12-29T00:34:59;9.40;99.90
63313;DHT22;49442;45.640;13.812;2022-12-29T00:37:34;9.40;99.90
63313;DHT22;49442;45.640;13.812;2022-12-29T00:40:18;9.40;99.90
63313;DHT22;49442;45.640;13.812;2022-12-29T00:43:02;9.40;99.90
63313;DHT22;49442;45.640;13.812;2022-12-29T00:45:47;9.50;99.90
63313;DHT22;49442;45.640;13.812;2022-12-29T00:48:12;9.50;99.90
63313;DHT22;49442;45.640;13.812;2022-12-29T00:50:38;9.50;99.90
63313;DHT22;49442;45.640;13.812;2022-12-29T00:53:03;9.50;99.90
63313;DHT22;49442;45.640;13.812;2022-12-29T00:55:29;9.50;99.90
63313;DHT22;49442;45.640;13.812;2022-12-29T00:57:54;9.50;99.90
63313;DHT22;49442;45.640;13.812;2022-12-29T01:00:20;9.50;99.90
63313;DHT22;49442;45.640;13.812;2022-12-29T01:02:45;9.50;99.90
63313;DHT22;49442;45.640;13.812;2022-12-29T01:05:11;9.50;99.90
63313;DHT22;49442;45.640;13.812;2022-12-29T01:07:36;9.50;99.90
63313;DHT22;49442;45.640;13.812;2022-12-29T01:10:02;9.50;99.90
63313;DHT22;49442;45.640;13.812;2022-12-29T01:12:36;9.50;99.90
63313;DHT22;49442;45.640;13.812;2022-12-29T01:15:11;9.50;99.90
63313;DHT22;49442;45.640;13.812;2022-12-29T01:17:37;9.50;99.90
63313;DHT22;49442;45.640;13.812;2022-12-29T01:20:03;9.50;99.90
63313;DHT22;49442;45.640;13.812;2022-12-29T01:22:28;9.50;99.90
63313;DHT22;49442;45.640;13.812;2022-12-29T01:24:54;9.50;99.90
63313;DHT22;49442;45.640;13.812;2022-12-29T01:27:19;9.50;99.90
63313;DHT22;49442;45.640;13.812;2022-12-29T01:29:45;9.50;99.90
63313;DHT22;49442;45.640;13.812;2022-12-29T01:32:10;9.50;99.90
63313;DHT22;49442;45.640;13.812;2022-12-29T01:34:36;9.50;99.90
63313;DHT22;49442;45.640;13.812;2022-12-29T01:37:01;9.40;99.90
63313;DHT22;49442;45.640;13.812;2022-12-29T01:39:27;9.50;99.90
63313;DHT22;49442;45.640;13.812;2022-12-29T01:41:52;9.40;99.90
63313;DHT22;49442;45.640;13.812;2022-12-29T01:47:02;9.40;99.90
63313;DHT22;49442;45.640;13.812;2022-12-29T01:49:28;9.40;99.90
63313;DHT22;49442;45.640;13.812;2022-12-29T01:51:55;9.40;99.90
63313;DHT22;49442;45.640;13.812;2022-12-29T01:54:56;9.40;99.90
63313;DHT22;49442;45.640;13.812;2022-12-29T01:57:16;9.40;99.90
63313;DHT22;49442;45.640;13.812;2022-12-29T01:59:46;9.40;99.90
63313;DHT22;49442;45.640;13.812;2022-12-29T02:02:13;9.40;99.90
63313;DHT22;49442;45.640;13.812;2022-12-29T02:04:40;9.40;99.90
63313;DHT22;49442;45.640;13.812;2022-12-29T02:07:10;9.40;99.90
63313;DHT22;49442;45.640;13.812;2022-12-29T02:09:36;9.40;99.90
63313;DHT22;49442;45.640;13.812;2022-12-29T02:12:02;9.40;99.90
63313;DHT22;49442;45.640;13.812;2022-12-29T02:14:28;9.40;99.90
63313;DHT22;49442;45.640;13.812;2022-12-29T02:17:07;9.40;99.90
63313;DHT22;49442;45.640;13.812;2022-12-29T02:27:26;9.40;99.90
63313;DHT22;49442;45.640;13.812;2022-12-29T02:32:36;9.40;99.90
63313;DHT22;49442;45.640;13.812;2022-12-29T02:35:25;9.40;99.90
63313;DHT22;49442;45.640;13.812;2022-12-29T02:38:00;9.40;99.90
63313;DHT22;49442;45.640;13.812;2022-12-29T02:40:37;9.40;99.90
63313;DHT22;49442;45.640;13.812;2022-12-29T02:43:09;9.50;99.90
63313;DHT22;49442;45.640;13.812;2022-12-29T02:45:41;9.50;99.90
63313;DHT22;49442;45.640;13.812;2022-12-29T02:48:54;9.50;99.90
63313;DHT22;49442;45.640;13.812;2022-12-29T02:51:01;9.40;99.90
63313;DHT22;49442;45.640;13.812;2022-12-29T02:53:30;9.40;99.90
63313;DHT22;49442;45.640;13.812;2022-12-29T02:56:15;9.40;99.90
63313;DHT22;49442;45.640;13.812;2022-12-29T02:58:41;9.40;99.90
63313;DHT22;49442;45.640;13.812;2022-12-29T03:03:55;9.40;99.90
63313;DHT22;49442;45.640;13.812;2022-12-29T03:09:11;9.30;99.90
63313;DHT22;49442;45.640;13.812;2022-12-29T03:11:47;9.30;99.90
63313;DHT22;49442;45.640;13.812;2022-12-29T03:14:36;9.30;99.90
63313;DHT22;49442;45.640;13.812;2022-12-29T03:20:08;9.30;99.90
63313;DHT22;49442;45.640;13.812;2022-12-29T03:22:36;9.30;99.90
63313;DHT22;49442;45.640;13.812;2022-12-29T03:27:38;9.20;99.90
63313;DHT22;49442;45.640;13.812;2022-12-29T03:30:05;9.10;99.90
63313;DHT22;49442;45.640;13.812;2022-12-29T03:32:53;9.10;99.90
63313;DHT22;49442;45.640;13.812;2022-12-29T03:35:19;9.10;99.90
63313;DHT22;49442;45.640;13.812;2022-12-29T03:40:30;9.10;99.90
63313;DHT22;49442;45.640;13.812;2022-12-29T03:42:56;9.10;99.90
63313;DHT22;49442;45.640;13.812;2022-12-29T03:45:22;9.10;99.90
63313;DHT22;49442;45.640;13.812;2022-12-29T03:47:48;9.10;99.90
63313;DHT22;49442;45.640;13.812;2022-12-29T03:50:13;9.10;99.90
63313;DHT22;49442;45.640;13.812;2022-12-29T03:52:39;9.10;99.90
63313;DHT22;49442;45.640;13.812;2022-12-29T03:55:04;9.10;99.90
63313;DHT22;49442;45.640;13.812;2022-12-29T03:57:30;9.10;99.90
63313;DHT22;49442;45.640;13.812;2022-12-29T03:59:56;9.10;99.90
63313;DHT22;49442;45.640;13.812;2022-12-29T04:02:21;9.10;99.90
63313;DHT22;49442;45.640;13.812;2022-12-29T04:04:47;9.10;99.90
63313;DHT22;49442;45.640;13.812;2022-12-29T04:07:12;9.10;99.90
63313;DHT22;49442;45.640;13.812;2022-12-29T04:09:38;9.10;99.90
63313;DHT22;49442;45.640;13.812;2022-12-29T04:12:03;9.10;99.90
63313;DHT22;49442;45.640;13.812;2022-12-29T04:14:29;9.10;99.90
63313;DHT22;49442;45.640;13.812;2022-12-29T04:16:55;9.10;99.90
63313;DHT22;49442;45.640;13.812;2022-12-29T04:19:20;9.10;99.90
63313;DHT22;49442;45.640;13.812;2022-12-29T04:21:46;9.10;99.90
63313;DHT22;49442;45.640;13.812;2022-12-29T04:24:11;9.20;99.90
63313;DHT22;49442;45.640;13.812;2022-12-29T04:26:38;9.20;99.90
63313;DHT22;49442;45.640;13.812;2022-12-29T04:29:03;9.10;99.90
63313;DHT22;49442;45.640;13.812;2022-12-29T04:31:29;9.20;99.90
63313;DHT22;49442;45.640;13.812;2022-12-29T04:33:55;9.10;99.90
63313;DHT22;49442;45.640;13.812;2022-12-29T04:36:22;9.20;99.90
63313;DHT22;49442;45.640;13.812;2022-12-29T04:38:48;9.20;99.90
63313;DHT22;49442;45.640;13.812;2022-12-29T04:41:13;9.20;99.90
63313;DHT22;49442;45.640;13.812;2022-12-29T04:43:39;9.20;99.90
63313;DHT22;49442;45.640;13.812;2022-12-29T04:46:05;9.20;99.90
63313;DHT22;49442;45.640;13.812;2022-12-29T04:48:30;9.20;99.90
63313;DHT22;49442;45.640;13.812;2022-12-29T04:50:56;9.20;99.90
63313;DHT22;49442;45.640;13.812;2022-12-29T04:53:21;9.20;99.90
63313;DHT22;49442;45.640;13.812;2022-12-29T04:55:50;9.20;99.90
63313;DHT22;49442;45.640;13.812;2022-12-29T04:58:16;9.20;99.90
63313;DHT22;49442;45.640;13.812;2022-12-29T05:00:42;9.30;99.90
63313;DHT22;49442;45.640;13.812;2022-12-29T05:03:07;9.30;99.90
63313;DHT22;49442;45.640;13.812;2022-12-29T05:05:33;9.30;99.90
63313;DHT22;49442;45.640;13.812;2022-12-29T05:07:58;9.40;99.90
63313;DHT22;49442;45.640;13.812;2022-12-29T05:10:24;9.40;99.90
63313;DHT22;49442;45.640;13.812;2022-12-29T05:12:49;9.40;99.90
63313;DHT22;49442;45.640;13.812;2022-12-29T05:15:15;9.40;99.90
63313;DHT22;49442;45.640;13.812;2022-12-29T05:17:40;9.40;99.90
63313;DHT22;49442;45.640;13.812;2022-12-29T05:20:06;9.40;99.90
63313;DHT22;49442;45.640;13.812;2022-12-29T05:22:32;9.40;99.90
63313;DHT22;49442;45.640;13.812;2022-12-29T05:24:57;9.40;99.90
63313;DHT22;49442;45.640;13.812;2022-12-29T05:27:23;9.40;99.90
63313;DHT22;49442;45.640;13.812;2022-12-29T05:29:48;9.40;99.90
63313;DHT22;49442;45.640;13.812;2022-12-29T05:32:14;9.50;99.90
63313;DHT22;49442;45.640;13.812;2022-12-29T05:34:40;9.40;99.90
63313;DHT22;49442;45.640;13.812;2022-12-29T05:37:05;9.50;99.90
63313;DHT22;49442;45.640;13.812;2022-12-29T05:39:31;9.50;99.90
63313;DHT22;49442;45.640;13.812;2022-12-29T05:41:56;9.50;99.90
63313;DHT22;49442;45.640;13.812;2022-12-29T05:44:22;9.50;99.90
63313;DHT22;49442;45.640;13.812;2022-12-29T05:46:48;9.50;99.90
63313;DHT22;49442;45.640;13.812;2022-12-29T05:49:13;9.60;99.90
63313;DHT22;49442;45.640;13.812;2022-12-29T05:51:39;9.50;99.90
63313;DHT22;49442;45.640;13.812;2022-12-29T05:54:04;9.50;99.90
63313;DHT22;49442;45.640;13.812;2022-12-29T05:56:30;9.50;99.90
63313;DHT22;49442;45.640;13.812;2022-12-29T05:58:55;9.50;99.90
63313;DHT22;49442;45.640;13.812;2022-12-29T06:01:21;9.50;99.90
63313;DHT22;49442;45.640;13.812;2022-12-29T06:03:47;9.50;99.90
63313;DHT22;49442;45.640;13.812;2022-12-29T06:06:12;9.50;99.90
63313;DHT22;49442;45.640;13.812;2022-12-29T06:08:38;9.50;99.90
63313;DHT22;49442;45.640;13.812;2022-12-29T06:11:03;9.50;99.90
63313;DHT22;49442;45.640;13.812;2022-12-29T06:13:29;9.50;99.90
63313;DHT22;49442;45.640;13.812;2022-12-29T06:15:54;9.40;99.90
63313;DHT22;49442;45.640;13.812;2022-12-29T06:18:20;9.50;99.90
63313;DHT22;49442;45.640;13.812;2022-12-29T06:20:45;9.40;99.90
63313;DHT22;49442;45.640;13.812;2022-12-29T06:23:11;9.40;99.90
63313;DHT22;49442;45.640;13.812;2022-12-29T06:25:39;9.40;99.90
63313;DHT22;49442;45.640;13.812;2022-12-29T06:28:05;9.40;99.90
63313;DHT22;49442;45.640;13.812;2022-12-29T06:30:31;9.40;99.90
63313;DHT22;49442;45.640;13.812;2022-12-29T06:32:57;9.40;99.90
63313;DHT22;49442;45.640;13.812;2022-12-29T06:35:23;9.40;99.90
63313;DHT22;49442;45.640;13.812;2022-12-29T06:37:48;9.40;99.90
63313;DHT22;49442;45.640;13.812;2022-12-29T06:40:14;9.40;99.90
63313;DHT22;49442;45.640;13.812;2022-12-29T06:42:40;9.40;99.90
63313;DHT22;49442;45.640;13.812;2022-12-29T06:45:05;9.40;99.90
63313;DHT22;49442;45.640;13.812;2022-12-29T06:47:34;9.40;99.90
63313;DHT22;49442;45.640;13.812;2022-12-29T06:50:00;9.40;99.90
63313;DHT22;49442;45.640;13.812;2022-12-29T06:52:26;9.40;99.90
63313;DHT22;49442;45.640;13.812;2022-12-29T06:54:51;9.40;99.90
63313;DHT22;49442;45.640;13.812;2022-12-29T06:57:17;9.50;99.90
63313;DHT22;49442;45.640;13.812;2022-12-29T06:59:42;9.40;99.90
63313;DHT22;49442;45.640;13.812;2022-12-29T07:02:10;9.40;99.90
63313;DHT22;49442;45.640;13.812;2022-12-29T07:04:35;9.40;99.90
63313;DHT22;49442;45.640;13.812;2022-12-29T07:07:01;9.40;99.90
63313;DHT22;49442;45.640;13.812;2022-12-29T07:09:27;9.40;99.90
63313;DHT22;49442;45.640;13.812;2022-12-29T07:11:52;9.40;99.90
63313;DHT22;49442;45.640;13.812;2022-12-29T07:14:18;9.40;99.90
63313;DHT22;49442;45.640;13.812;2022-12-29T07:16:43;9.40;99.90
63313;DHT22;49442;45.640;13.812;2022-12-29T07:19:09;9.40;99.90
63313;DHT22;49442;45.640;13.812;2022-12-29T07:21:34;9.40;99.90
63313;DHT22;49442;45.640;13.812;2022-12-29T07:24:00;9.40;99.90
63313;DHT22;49442;45.640;13.812;2022-12-29T07:26:25;9.40;99.90
63313;DHT22;49442;45.640;13.812;2022-12-29T07:28:51;9.40;99.90
63313;DHT22;49442;45.640;13.812;2022-12-29T07:31:18;9.40;99.90
63313;DHT22;49442;45.640;13.812;2022-12-29T07:33:44;9.50;99.90
63313;DHT22;49442;45.640;13.812;2022-12-29T07:36:10;9.50;99.90
63313;DHT22;49442;45.640;13.812;2022-12-29T07:38:35;9.50;99.90
63313;DHT22;49442;45.640;13.812;2022-12-29T07:41:01;9.50;99.90
63313;DHT22;49442;45.640;13.812;2022-12-29T07:43:27;9.50;99.90
63313;DHT22;49442;45.640;13.812;2022-12-29T07:45:52;9.50;99.90
63313;DHT22;49442;45.640;13.812;2022-12-29T07:48:18;9.50;99.90
63313;DHT22;49442;45.640;13.812;2022-12-29T07:50:44;9.50;99.90
63313;DHT22;49442;45.640;13.812;2022-12-29T07:53:09;9.50;99.90
63313;DHT22;49442;45.640;13.812;2022-12-29T07:55:35;9.50;99.90
63313;DHT22;49442;45.640;13.812;2022-12-29T07:58:00;9.50;99.90
63313;DHT22;49442;45.640;13.812;2022-12-29T08:00:26;9.50;99.90
63313;DHT22;49442;45.640;13.812;2022-12-29T08:02:51;9.50;99.90
63313;DHT22;49442;45.640;13.812;2022-12-29T08:05:17;9.50;99.90
63313;DHT22;49442;45.640;13.812;2022-12-29T08:07:43;9.50;99.90
63313;DHT22;49442;45.640;13.812;2022-12-29T08:10:09;9.50;99.90
63313;DHT22;49442;45.640;13.812;2022-12-29T08:12:35;9.50;99.90
63313;DHT22;49442;45.640;13.812;2022-12-29T08:15:00;9.50;99.90
63313;DHT22;49442;45.640;13.812;2022-12-29T08:17:26;9.60;99.90
63313;DHT22;49442;45.640;13.812;2022-12-29T08:19:51;9.50;99.90
63313;DHT22;49442;45.640;13.812;2022-12-29T08:22:20;9.60;99.90
63313;DHT22;49442;45.640;13.812;2022-12-29T08:24:45;9.60;99.90
63313;DHT22;49442;45.640;13.812;2022-12-29T08:27:11;9.60;99.90
63313;DHT22;49442;45.640;13.812;2022-12-29T08:29:37;9.60;99.90
63313;DHT22;49442;45.640;13.812;2022-12-29T08:32:02;9.60;99.90
63313;DHT22;49442;45.640;13.812;2022-12-29T08:34:31;9.70;99.90
63313;DHT22;49442;45.640;13.812;2022-12-29T08:36:57;9.70;99.90
63313;DHT22;49442;45.640;13.812;2022-12-29T08:39:22;9.70;99.90
63313;DHT22;49442;45.640;13.812;2022-12-29T08:41:48;9.70;99.90
63313;DHT22;49442;45.640;13.812;2022-12-29T08:44:14;9.70;99.90
63313;DHT22;49442;45.640;13.812;2022-12-29T08:46:39;9.80;99.90
63313;DHT22;49442;45.640;13.812;2022-12-29T08:49:05;9.80;99.90
63313;DHT22;49442;45.640;13.812;2022-12-29T08:51:30;9.80;99.90
63313;DHT22;49442;45.640;13.812;2022-12-29T08:53:56;9.80;99.90
63313;DHT22;49442;45.640;13.812;2022-12-29T08:56:21;9.80;99.90
63313;DHT22;49442;45.640;13.812;2022-12-29T08:58:49;9.90;99.90
63313;DHT22;49442;45.640;13.812;2022-12-29T09:01:15;9.90;99.90
63313;DHT22;49442;45.640;13.812;2022-12-29T09:03:40;9.90;99.90
63313;DHT22;49442;45.640;13.812;2022-12-29T09:06:06;9.90;99.90
63313;DHT22;49442;45.640;13.812;2022-12-29T09:08:31;10.00;99.90
63313;DHT22;49442;45.640;13.812;2022-12-29T09:11:07;10.00;99.90
63313;DHT22;49442;45.640;13.812;2022-12-29T09:13:33;10.00;99.90
63313;DHT22;49442;45.640;13.812;2022-12-29T09:15:59;10.00;99.90
63313;DHT22;49442;45.640;13.812;2022-12-29T09:18:25;10.00;99.90
63313;DHT22;49442;45.640;13.812;2022-12-29T09:20:55;10.00;99.90
63313;DHT22;49442;45.640;13.812;2022-12-29T09:23:21;10.00;99.90
63313;DHT22;49442;45.640;13.812;2022-12-29T09:25:47;10.00;99.90
63313;DHT22;49442;45.640;13.812;2022-12-29T09:28:12;10.10;99.90
63313;DHT22;49442;45.640;13.812;2022-12-29T09:30:38;10.10;99.90
63313;DHT22;49442;45.640;13.812;2022-12-29T09:33:03;10.10;99.90
63313;DHT22;49442;45.640;13.812;2022-12-29T09:35:29;10.10;99.90
63313;DHT22;49442;45.640;13.812;2022-12-29T09:37:54;10.10;99.90
63313;DHT22;49442;45.640;13.812;2022-12-29T09:40:30;10.20;99.90
63313;DHT22;49442;45.640;13.812;2022-12-29T09:43:10;10.20;99.90
63313;DHT22;49442;45.640;13.812;2022-12-29T09:45:45;10.20;99.90
63313;DHT22;49442;45.640;13.812;2022-12-29T09:48:20;10.20;99.90
63313;DHT22;49442;45.640;13.812;2022-12-29T09:50:49;10.30;99.90
63313;DHT22;49442;45.640;13.812;2022-12-29T09:53:18;10.20;99.90
63313;DHT22;49442;45.640;13.812;2022-12-29T09:55:47;10.30;99.90
63313;DHT22;49442;45.640;13.812;2022-12-29T09:58:15;10.20;99.90
63313;DHT22;49442;45.640;13.812;2022-12-29T10:00:47;10.20;99.90
63313;DHT22;49442;45.640;13.812;2022-12-29T10:03:14;10.20;99.90
63313;DHT22;49442;45.640;13.812;2022-12-29T10:08:30;10.20;99.90
63313;DHT22;49442;45.640;13.812;2022-12-29T10:10:59;10.20;99.90
63313;DHT22;49442;45.640;13.812;2022-12-29T10:13:36;10.20;99.90
63313;DHT22;49442;45.640;13.812;2022-12-29T10:16:11;10.20;99.90
63313;DHT22;49442;45.640;13.812;2022-12-29T10:23:40;10.10;99.90
63313;DHT22;49442;45.640;13.812;2022-12-29T10:26:50;10.20;99.90
63313;DHT22;49442;45.640;13.812;2022-12-29T10:28:57;10.10;99.90
63313;DHT22;49442;45.640;13.812;2022-12-29T10:31:32;10.10;99.90
63313;DHT22;49442;45.640;13.812;2022-12-29T10:34:00;10.20;99.90
63313;DHT22;49442;45.640;13.812;2022-12-29T10:39:01;10.20;99.90
63313;DHT22;49442;45.640;13.812;2022-12-29T10:41:38;10.20;99.90
63313;DHT22;49442;45.640;13.812;2022-12-29T10:44:04;10.30;99.90
63313;DHT22;49442;45.640;13.812;2022-12-29T10:46:33;10.30;99.90
63313;DHT22;49442;45.640;13.812;2022-12-29T10:49:00;10.30;99.90
63313;DHT22;49442;45.640;13.812;2022-12-29T10:51:32;10.30;99.90
63313;DHT22;49442;45.640;13.812;2022-12-29T10:54:19;10.40;99.90
63313;DHT22;49442;45.640;13.812;2022-12-29T10:56:50;10.40;99.90
63313;DHT22;49442;45.640;13.812;2022-12-29T10:59:21;10.40;99.90
63313;DHT22;49442;45.640;13.812;2022-12-29T11:06:44;10.50;99.90
63313;DHT22;49442;45.640;13.812;2022-12-29T11:09:19;10.50;99.90
63313;DHT22;49442;45.640;13.812;2022-12-29T11:11:47;10.50;99.90
63313;DHT22;49442;45.640;13.812;2022-12-29T11:14:14;10.50;99.90
63313;DHT22;49442;45.640;13.812;2022-12-29T11:16:40;10.50;99.90
63313;DHT22;49442;45.640;13.812;2022-12-29T11:19:28;10.50;99.90
63313;DHT22;49442;45.640;13.812;2022-12-29T11:21:52;10.50;99.90
63313;DHT22;49442;45.640;13.812;2022-12-29T11:24:20;10.50;99.90
63313;DHT22;49442;45.640;13.812;2022-12-29T11:26:46;10.50;99.90
63313;DHT22;49442;45.640;13.812;2022-12-29T11:34:47;10.50;99.90
63313;DHT22;49442;45.640;13.812;2022-12-29T11:37:06;10.40;99.90
63313;DHT22;49442;45.640;13.812;2022-12-29T11:42:04;10.40;99.90
63313;DHT22;49442;45.640;13.812;2022-12-29T11:44:36;10.40;99.90
63313;DHT22;49442;45.640;13.812;2022-12-29T11:47:03;10.40;99.90
63313;DHT22;49442;45.640;13.812;2022-12-29T11:49:29;10.40;99.90
63313;DHT22;49442;45.640;13.812;2022-12-29T11:51:54;10.40;99.90
63313;DHT22;49442;45.640;13.812;2022-12-29T11:54:23;10.40;99.90
63313;DHT22;49442;45.640;13.812;2022-12-29T11:56:50;10.40;99.90
63313;DHT22;49442;45.640;13.812;2022-12-29T12:02:00;10.30;99.90
63313;DHT22;49442;45.640;13.812;2022-12-29T12:04:34;10.40;99.90
63313;DHT22;49442;45.640;13.812;2022-12-29T12:07:02;10.40;99.90
63313;DHT22;49442;45.640;13.812;2022-12-29T12:09:33;10.40;99.90
63313;DHT22;49442;45.640;13.812;2022-12-29T12:12:00;10.40;99.90
63313;DHT22;49442;45.640;13.812;2022-12-29T12:21:50;10.40;99.90
63313;DHT22;49442;45.640;13.812;2022-12-29T12:29:22;10.60;99.90
63313;DHT22;49442;45.640;13.812;2022-12-29T12:31:51;10.60;99.90
63313;DHT22;49442;45.640;13.812;2022-12-29T12:34:24;10.70;99.90
63313;DHT22;49442;45.640;13.812;2022-12-29T12:41:46;10.90;99.90
63313;DHT22;49442;45.640;13.812;2022-12-29T12:46:59;10.90;99.90
63313;DHT22;49442;45.640;13.812;2022-12-29T13:00:04;10.80;99.90
63313;DHT22;49442;45.640;13.812;2022-12-29T13:21:18;10.70;99.90
63313;DHT22;49442;45.640;13.812;2022-12-29T13:23:59;10.70;99.90
63313;DHT22;49442;45.640;13.812;2022-12-29T13:26:33;10.70;99.90
63313;DHT22;49442;45.640;13.812;2022-12-29T13:36:55;10.60;99.90
63313;DHT22;49442;45.640;13.812;2022-12-29T13:39:33;10.50;99.90
63313;DHT22;49442;45.640;13.812;2022-12-29T13:41:59;10.60;99.90
63313;DHT22;49442;45.640;13.812;2022-12-29T13:44:37;10.50;99.90
63313;DHT22;49442;45.640;13.812;2022-12-29T13:49:48;10.50;99.90
63313;DHT22;49442;45.640;13.812;2022-12-29T13:57:20;10.40;99.90
63313;DHT22;49442;45.640;13.812;2022-12-29T14:00:32;10.40;99.90
63313;DHT22;49442;45.640;13.812;2022-12-29T14:07:48;10.40;99.90
63313;DHT22;49442;45.640;13.812;2022-12-29T14:10:26;10.40;99.90
63313;DHT22;49442;45.640;13.812;2022-12-29T14:12:53;10.40;99.90
63313;DHT22;49442;45.640;13.812;2022-12-29T14:15:25;10.40;99.90
63313;DHT22;49442;45.640;13.812;2022-12-29T14:20:35;10.40;99.90
63313;DHT22;49442;45.640;13.812;2022-12-29T14:23:14;10.40;99.90
63313;DHT22;49442;45.640;13.812;2022-12-29T14:28:22;10.30;99.90
63313;DHT22;49442;45.640;13.812;2022-12-29T14:30:52;10.40;99.90
63313;DHT22;49442;45.640;13.812;2022-12-29T14:33:18;10.40;99.90
63313;DHT22;49442;45.640;13.812;2022-12-29T14:35:45;10.40;99.90
63313;DHT22;49442;45.640;13.812;2022-12-29T14:38:18;10.40;99.90
63313;DHT22;49442;45.640;13.812;2022-12-29T14:40:45;10.40;99.90
63313;DHT22;49442;45.640;13.812;2022-12-29T14:43:11;10.40;99.90
63313;DHT22;49442;45.640;13.812;2022-12-29T14:45:38;10.30;99.90
63313;DHT22;49442;45.640;13.812;2022-12-29T14:50:49;10.30;99.90
63313;DHT22;49442;45.640;13.812;2022-12-29T14:55:59;10.30;99.90
63313;DHT22;49442;45.640;13.812;2022-12-29T15:00:50;10.30;99.90
63313;DHT22;49442;45.640;13.812;2022-12-29T15:06:04;10.30;99.90
63313;DHT22;49442;45.640;13.812;2022-12-29T15:08:33;10.30;99.90
63313;DHT22;49442;45.640;13.812;2022-12-29T15:11:10;10.30;99.90
63313;DHT22;49442;45.640;13.812;2022-12-29T15:13:38;10.30;99.90
63313;DHT22;49442;45.640;13.812;2022-12-29T15:16:20;10.30;99.90
63313;DHT22;49442;45.640;13.812;2022-12-29T15:18:46;10.20;99.90
63313;DHT22;49442;45.640;13.812;2022-12-29T15:21:11;10.20;99.90
63313;DHT22;49442;45.640;13.812;2022-12-29T15:23:38;10.20;99.90
63313;DHT22;49442;45.640;13.812;2022-12-29T15:31:05;10.20;99.90
63313;DHT22;49442;45.640;13.812;2022-12-29T15:33:30;10.20;99.90
63313;DHT22;49442;45.640;13.812;2022-12-29T15:36:02;10.20;99.90
63313;DHT22;49442;45.640;13.812;2022-12-29T15:38:29;10.20;99.90
63313;DHT22;49442;45.640;13.812;2022-12-29T15:40:56;10.10;99.90
63313;DHT22;49442;45.640;13.812;2022-12-29T15:45:52;10.10;99.90
63313;DHT22;49442;45.640;13.812;2022-12-29T15:48:19;10.10;99.90
63313;DHT22;49442;45.640;13.812;2022-12-29T15:50:46;10.10;99.90
63313;DHT22;49442;45.640;13.812;2022-12-29T15:53:14;10.10;99.90
63313;DHT22;49442;45.640;13.812;2022-12-29T15:55:41;10.10;99.90
63313;DHT22;49442;45.640;13.812;2022-12-29T15:58:21;10.10;99.90
63313;DHT22;49442;45.640;13.812;2022-12-29T16:00:48;10.10;99.90
63313;DHT22;49442;45.640;13.812;2022-12-29T16:03:14;10.10;99.90
63313;DHT22;49442;45.640;13.812;2022-12-29T16:05:40;10.10;99.90
63313;DHT22;49442;45.640;13.812;2022-12-29T16:08:24;10.10;99.90
63313;DHT22;49442;45.640;13.812;2022-12-29T16:10:50;10.10;99.90
63313;DHT22;49442;45.640;13.812;2022-12-29T16:13:28;10.10;99.90
63313;DHT22;49442;45.640;13.812;2022-12-29T16:16:00;10.10;99.90
63313;DHT22;49442;45.640;13.812;2022-12-29T16:18:27;10.10;99.90
63313;DHT22;49442;45.640;13.812;2022-12-29T16:20:54;10.10;99.90
63313;DHT22;49442;45.640;13.812;2022-12-29T16:23:25;10.10;99.90
63313;DHT22;49442;45.640;13.812;2022-12-29T16:25:51;10.00;99.90
63313;DHT22;49442;45.640;13.812;2022-12-29T16:28:20;10.00;99.90
63313;DHT22;49442;45.640;13.812;2022-12-29T16:30:46;10.00;99.90
63313;DHT22;49442;45.640;13.812;2022-12-29T16:33:29;10.00;99.90
63313;DHT22;49442;45.640;13.812;2022-12-29T16:35:57;10.00;99.90
63313;DHT22;49442;45.640;13.812;2022-12-29T16:38:23;10.00;99.90
63313;DHT22;49442;45.640;13.812;2022-12-29T16:40:52;10.00;99.90
63313;DHT22;49442;45.640;13.812;2022-12-29T16:43:22;10.00;99.90
63313;DHT22;49442;45.640;13.812;2022-12-29T16:50:42;10.00;99.90
63313;DHT22;49442;45.640;13.812;2022-12-29T16:53:19;10.00;99.90
63313;DHT22;49442;45.640;13.812;2022-12-29T16:55:46;10.00;99.90
63313;DHT22;49442;45.640;13.812;2022-12-29T16:58:12;10.00;99.90
63313;DHT22;49442;45.640;13.812;2022-12-29T17:00:44;10.00;99.90
63313;DHT22;49442;45.640;13.812;2022-12-29T17:03:10;10.00;99.90
63313;DHT22;49442;45.640;13.812;2022-12-29T17:05:36;10.00;99.90
63313;DHT22;49442;45.640;13.812;2022-12-29T17:08:02;10.00;99.90
63313;DHT22;49442;45.640;13.812;2022-12-29T17:10:27;10.00;99.90
63313;DHT22;49442;45.640;13.812;2022-12-29T17:13:13;10.00;99.90
63313;DHT22;49442;45.640;13.812;2022-12-29T17:15:38;10.00;99.90
63313;DHT22;49442;45.640;13.812;2022-12-29T17:18:04;10.00;99.90
63313;DHT22;49442;45.640;13.812;2022-12-29T17:20:30;10.00;99.90
63313;DHT22;49442;45.640;13.812;2022-12-29T17:22:56;10.00;99.90
63313;DHT22;49442;45.640;13.812;2022-12-29T17:25:32;10.00;99.90
63313;DHT22;49442;45.640;13.812;2022-12-29T17:28:02;10.00;99.90
63313;DHT22;49442;45.640;13.812;2022-12-29T17:30:29;10.00;99.90
63313;DHT22;49442;45.640;13.812;2022-12-29T17:33:06;10.00;99.90
63313;DHT22;49442;45.640;13.812;2022-12-29T17:35:34;10.00;99.90
63313;DHT22;49442;45.640;13.812;2022-12-29T17:37:59;10.00;99.90
63313;DHT22;49442;45.640;13.812;2022-12-29T17:40:28;10.00;99.90
63313;DHT22;49442;45.640;13.812;2022-12-29T17:42:55;10.10;99.90
63313;DHT22;49442;45.640;13.812;2022-12-29T17:45:26;10.10;99.90
63313;DHT22;49442;45.640;13.812;2022-12-29T17:47:52;10.10;99.90
63313;DHT22;49442;45.640;13.812;2022-12-29T17:50:21;10.10;99.90
63313;DHT22;49442;45.640;13.812;2022-12-29T17:52:55;10.10;99.90
63313;DHT22;49442;45.640;13.812;2022-12-29T17:55:21;10.20;99.90
63313;DHT22;49442;45.640;13.812;2022-12-29T17:57:47;10.20;99.90
63313;DHT22;49442;45.640;13.812;2022-12-29T18:00:14;10.20;99.90
63313;DHT22;49442;45.640;13.812;2022-12-29T18:02:39;10.20;99.90
63313;DHT22;49442;45.640;13.812;2022-12-29T18:05:05;10.20;99.90